Time;durP1;ratioP1;P1;durP2;ratioP2;P2;SDS_P1;SDS_P2;PMS_P1;PMS_P2;Temp;Humidity;BMP_temperature;BMP_pressure;BME280_temperature;BME280_humidity;BME280_pressure;Samples;Min_cycle;Max_cycle;Signal;HPM_P1;HPM_P2
2022/06/24 00:02:19;;;;;;;5.90;3.55;;;23.10;79.90;;;;;;5099739;28;20198;-81
2022/06/24 00:04:51;;;;;;;4.80;2.90;;;23.00;80.10;;;;;;5101036;28;20611;-81
2022/06/24 00:07:18;;;;;;;4.57;3.20;;;23.00;81.00;;;;;;5099925;28;20200;-81
2022/06/24 00:09:44;;;;;;;8.00;3.75;;;23.00;80.10;;;;;;5099638;28;20235;-81
2022/06/24 00:12:12;;;;;;;7.32;3.33;;;22.80;82.70;;;;;;5099234;28;20191;-81
2022/06/24 00:14:40;;;;;;;4.47;3.15;;;22.70;83.20;;;;;;5099339;28;20191;-81
2022/06/24 00:17:08;;;;;;;3.88;3.38;;;22.60;82.90;;;;;;5099079;28;20175;-81
2022/06/24 00:19:50;;;;;;;3.78;3.13;;;22.60;81.60;;;;;;5099563;28;20283;-81
2022/06/24 00:22:16;;;;;;;4.25;3.10;;;22.80;81.30;;;;;;5099201;28;20295;-81
2022/06/24 00:24:42;;;;;;;6.10;3.35;;;22.80;81.90;;;;;;5098499;28;20207;-81
2022/06/24 00:27:22;;;;;;;4.47;3.25;;;22.70;81.90;;;;;;5099389;28;20536;-81
2022/06/24 00:29:50;;;;;;;7.68;3.22;;;22.60;83.30;;;;;;5100287;28;20172;-81
2022/06/24 00:32:28;;;;;;;5.40;3.35;;;22.60;82.30;;;;;;5098633;28;20195;-81
2022/06/24 00:35:03;;;;;;;3.67;3.38;;;22.50;81.70;;;;;;5098896;28;20180;-81
2022/06/24 00:37:31;;;;;;;3.78;3.13;;;22.60;81.70;;;;;;5098232;28;20198;-81
2022/06/24 00:40:10;;;;;;;4.63;3.20;;;22.40;82.10;;;;;;5099353;28;20536;-81
2022/06/24 00:42:46;;;;;;;9.50;3.40;;;22.30;83.20;;;;;;5098348;28;20191;-81
2022/06/24 00:45:29;;;;;;;4.95;3.28;;;22.20;83.70;;;;;;5098839;28;20163;-81
2022/06/24 00:47:56;;;;;;;6.43;3.38;;;22.20;84.00;;;;;;5094869;28;20164;-81
2022/06/24 00:50:28;;;;;;;5.05;3.25;;;22.20;83.80;;;;;;5095255;28;20588;-80
2022/06/24 00:52:57;;;;;;;5.32;3.15;;;22.20;81.70;;;;;;5094693;28;20206;-81
2022/06/24 00:55:30;;;;;;;3.85;3.08;;;22.20;83.10;;;;;;5095780;28;20203;-81
2022/06/24 00:57:57;;;;;;;3.75;3.20;;;22.10;82.90;;;;;;5097096;28;20230;-82
2022/06/24 01:00:24;;;;;;;3.65;3.25;;;22.30;82.40;;;;;;5098125;28;20167;-81
2022/06/24 01:02:57;;;;;;;4.57;3.45;;;22.10;82.10;;;;;;5097050;28;20304;-82
2022/06/24 01:05:23;;;;;;;3.65;3.03;;;22.30;82.40;;;;;;5097478;28;20168;-82
2022/06/24 01:07:49;;;;;;;6.97;3.30;;;22.40;81.90;;;;;;5097575;28;20168;-82
2022/06/24 01:10:14;;;;;;;4.35;3.10;;;22.40;80.70;;;;;;5097771;28;20184;-82
2022/06/24 01:12:40;;;;;;;7.53;3.03;;;22.40;80.40;;;;;;5097058;28;20298;-81
2022/06/24 01:15:06;;;;;;;3.40;2.97;;;22.40;80.80;;;;;;5098097;28;20175;-81
2022/06/24 01:17:32;;;;;;;3.85;3.05;;;22.40;79.80;;;;;;5098898;28;20245;-81
2022/06/24 01:19:58;;;;;;;6.57;3.20;;;22.50;80.20;;;;;;5098268;28;20579;-82
2022/06/24 01:22:26;;;;;;;5.15;3.03;;;22.50;80.10;;;;;;5097762;28;20208;-81
2022/06/24 01:24:53;;;;;;;5.88;3.35;;;22.20;81.80;;;;;;5097786;28;20168;-81
2022/06/24 01:27:19;;;;;;;5.03;2.92;;;22.20;80.50;;;;;;5097686;28;20196;-81
2022/06/24 01:29:45;;;;;;;3.95;2.80;;;22.20;80.90;;;;;;5097564;28;20172;-81
2022/06/24 01:32:11;;;;;;;7.22;2.95;;;22.30;79.90;;;;;;5098168;28;20207;-81
2022/06/24 01:34:37;;;;;;;3.97;2.90;;;22.30;79.50;;;;;;5098319;28;20178;-81
2022/06/24 01:37:03;;;;;;;5.53;3.33;;;22.40;79.70;;;;;;5095773;28;20191;-80
2022/06/24 01:39:29;;;;;;;4.95;3.03;;;22.30;79.90;;;;;;5092349;28;20196;-80
2022/06/24 01:41:55;;;;;;;3.80;3.30;;;22.30;79.50;;;;;;5091880;28;20210;-80
2022/06/24 01:44:22;;;;;;;5.78;3.10;;;22.40;80.10;;;;;;5091822;28;20164;-80
2022/06/24 01:46:48;;;;;;;3.05;2.85;;;22.30;79.30;;;;;;5094148;28;20175;-81
2022/06/24 01:49:14;;;;;;;5.88;3.00;;;22.30;79.80;;;;;;5098644;28;20658;-81
2022/06/24 01:51:42;;;;;;;3.70;3.10;;;22.20;79.50;;;;;;5097636;28;20174;-81
2022/06/24 01:54:08;;;;;;;6.57;3.28;;;22.20;79.30;;;;;;5097719;28;20193;-81
2022/06/24 01:56:34;;;;;;;4.93;3.10;;;22.20;79.40;;;;;;5096654;28;20218;-81
2022/06/24 01:59:00;;;;;;;4.70;3.03;;;22.20;79.80;;;;;;5096945;28;20532;-81
2022/06/24 02:01:26;;;;;;;3.95;3.00;;;22.10;80.10;;;;;;5097673;28;20271;-81
2022/06/24 02:03:51;;;;;;;4.03;2.90;;;22.20;79.70;;;;;;5097657;28;20184;-81
2022/06/24 02:06:17;;;;;;;5.55;3.05;;;22.10;80.50;;;;;;5097902;28;20194;-80
2022/06/24 02:08:44;;;;;;;3.75;3.35;;;22.10;80.40;;;;;;5098154;28;20195;-81
2022/06/24 02:13:57;;;;;;;4.68;2.72;;;22.10;80.30;;;;;;5099386;28;20167;-81
2022/06/24 02:16:23;;;;;;;4.85;2.85;;;22.10;80.30;;;;;;5097650;28;20609;-80
2022/06/24 02:18:49;;;;;;;5.45;2.58;;;21.90;80.50;;;;;;5097925;28;20695;-81
2022/06/24 02:21:15;;;;;;;5.43;2.72;;;22.00;80.10;;;;;;5097108;28;20176;-81
2022/06/24 02:23:42;;;;;;;6.57;3.17;;;21.90;79.50;;;;;;5097620;28;20192;-81
2022/06/24 02:26:09;;;;;;;5.93;2.90;;;22.00;79.10;;;;;;5097306;28;20309;-81
2022/06/24 02:28:35;;;;;;;4.07;2.88;;;22.10;78.90;;;;;;5096859;28;20183;-81
2022/06/24 02:31:01;;;;;;;3.70;2.80;;;22.20;79.10;;;;;;5096936;28;20176;-81
2022/06/24 02:33:28;;;;;;;3.28;2.88;;;22.10;79.40;;;;;;5098542;28;20275;-81
2022/06/24 02:35:54;;;;;;;3.58;2.88;;;22.10;79.60;;;;;;5097138;28;20171;-81
2022/06/24 02:38:19;;;;;;;3.78;2.88;;;22.10;80.10;;;;;;5097217;28;20562;-81
2022/06/24 02:40:45;;;;;;;4.95;3.08;;;22.10;80.00;;;;;;5099523;28;20183;-81
2022/06/24 02:43:35;;;;;;;5.28;2.88;;;22.20;79.80;;;;;;5100691;28;20203;-81
2022/06/24 02:46:12;;;;;;;4.43;3.20;;;22.20;80.30;;;;;;5089654;28;20191;-81
2022/06/24 02:48:40;;;;;;;6.25;3.15;;;22.20;81.30;;;;;;5100607;28;20543;-81
2022/06/24 02:51:08;;;;;;;5.30;3.20;;;22.20;83.50;;;;;;5101049;28;20191;-81
2022/06/24 02:53:35;;;;;;;7.53;3.05;;;22.20;83.60;;;;;;5100571;28;20206;-80
2022/06/24 02:56:09;;;;;;;7.43;2.90;;;22.20;83.70;;;;;;5100316;28;20548;-80
2022/06/24 02:58:35;;;;;;;9.93;3.38;;;22.30;84.00;;;;;;5100662;28;20249;-80
2022/06/24 03:01:02;;;;;;;11.73;3.47;;;22.20;84.50;;;;;;5099284;28;20176;-80
2022/06/24 03:03:29;;;;;;;3.67;3.05;;;22.20;84.70;;;;;;5099214;28;20192;-81
2022/06/24 03:05:54;;;;;;;4.38;3.35;;;22.20;85.40;;;;;;5100283;28;20637;-80
2022/06/24 03:08:24;;;;;;;10.35;3.53;;;22.10;88.00;;;;;;5099415;28;20183;-80
2022/06/24 03:10:50;;;;;;;8.57;4.88;;;22.00;90.20;;;;;;5100517;28;20172;-79
2022/06/24 03:13:16;;;;;;;10.32;4.82;;;22.10;92.10;;;;;;5100179;28;20618;-79
2022/06/24 03:15:43;;;;;;;9.20;4.82;;;22.10;93.30;;;;;;5099946;28;20176;-80
2022/06/24 03:18:10;;;;;;;12.68;5.43;;;22.10;93.70;;;;;;5099456;28;20686;-80
2022/06/24 03:20:36;;;;;;;12.88;6.35;;;22.20;94.30;;;;;;5099942;28;20172;-80
2022/06/24 03:23:01;;;;;;;15.07;6.00;;;22.10;95.40;;;;;;5099542;28;20660;-80
2022/06/24 03:25:27;;;;;;;16.80;6.70;;;22.00;96.10;;;;;;5099772;28;20258;-80
2022/06/24 03:27:53;;;;;;;14.00;6.25;;;22.10;96.60;;;;;;5099382;28;20188;-81
2022/06/24 03:30:18;;;;;;;16.77;7.57;;;22.10;97.20;;;;;;5099799;28;20168;-80
2022/06/24 03:32:44;;;;;;;12.75;7.22;;;22.00;98.40;;;;;;5099134;28;20192;-80
2022/06/24 03:35:09;;;;;;;15.73;8.45;;;22.00;99.30;;;;;;5098154;28;20211;-80
2022/06/24 03:37:35;;;;;;;18.45;10.48;;;22.00;99.90;;;;;;5098456;28;20602;-80
2022/06/24 03:40:03;;;;;;;17.67;10.00;;;22.10;99.90;;;;;;5099569;28;20633;-80
2022/06/24 03:42:29;;;;;;;23.30;10.65;;;22.10;99.90;;;;;;5100539;28;20279;-80
2022/06/24 03:44:55;;;;;;;25.83;11.98;;;22.10;99.90;;;;;;5099910;28;20713;-80
2022/06/24 03:47:21;;;;;;;16.83;11.05;;;22.10;99.90;;;;;;5098615;28;20172;-79
2022/06/24 03:49:47;;;;;;;22.48;11.13;;;22.20;99.90;;;;;;5100670;28;20175;-80
2022/06/24 03:52:13;;;;;;;19.67;11.30;;;22.10;99.90;;;;;;5098526;28;20192;-80
2022/06/24 03:54:39;;;;;;;21.05;10.80;;;22.10;99.90;;;;;;5099160;28;20628;-81
2022/06/24 03:57:05;;;;;;;18.70;9.88;;;22.10;99.90;;;;;;5099447;28;20201;-81
2022/06/24 03:59:31;;;;;;;16.85;9.98;;;22.00;99.90;;;;;;5100437;28;20200;-81
2022/06/24 04:01:57;;;;;;;18.25;10.38;;;22.00;99.90;;;;;;5099263;28;20851;-80
2022/06/24 04:04:23;;;;;;;16.95;9.55;;;22.00;99.90;;;;;;5099477;28;20172;-81
2022/06/24 04:06:49;;;;;;;19.88;9.80;;;22.00;99.90;;;;;;5098749;28;20701;-80
2022/06/24 04:09:15;;;;;;;18.10;8.80;;;22.00;99.90;;;;;;5098959;28;20247;-79
2022/06/24 04:11:41;;;;;;;14.63;7.90;;;21.90;99.90;;;;;;5099289;28;20171;-81
2022/06/24 04:14:06;;;;;;;17.67;8.38;;;22.00;99.90;;;;;;5097715;28;20183;-80
2022/06/24 04:16:32;;;;;;;16.58;8.85;;;22.00;99.90;;;;;;5098986;28;20176;-80
2022/06/24 04:18:58;;;;;;;15.30;7.93;;;22.00;99.90;;;;;;5098504;28;20192;-81
2022/06/24 04:21:24;;;;;;;15.18;8.20;;;21.90;99.90;;;;;;5098429;28;20167;-81
2022/06/24 04:23:50;;;;;;;19.42;9.20;;;21.90;99.90;;;;;;5098217;28;20184;-80
2022/06/24 04:26:17;;;;;;;12.05;7.97;;;21.90;99.90;;;;;;5097404;28;20183;-81
2022/06/24 04:28:43;;;;;;;14.05;7.85;;;22.00;99.90;;;;;;5099366;28;20172;-79
2022/06/24 04:31:09;;;;;;;17.23;8.38;;;21.90;99.90;;;;;;5099276;28;20180;-80
2022/06/24 04:33:34;;;;;;;13.30;7.70;;;21.80;99.90;;;;;;5099388;28;20206;-79
2022/06/24 04:36:00;;;;;;;15.55;7.65;;;21.80;99.90;;;;;;5099802;28;20184;-79
2022/06/24 04:38:26;;;;;;;15.25;8.32;;;21.80;99.90;;;;;;5099493;28;20192;-81
2022/06/24 04:40:52;;;;;;;14.23;8.27;;;21.80;99.90;;;;;;5099224;28;20778;-81
2022/06/24 04:43:17;;;;;;;15.50;8.63;;;21.80;99.90;;;;;;5098671;28;20199;-81
2022/06/24 04:45:44;;;;;;;13.77;9.25;;;21.80;99.90;;;;;;5099140;28;20217;-80
2022/06/24 04:48:11;;;;;;;12.80;7.82;;;21.70;99.90;;;;;;5095420;28;20639;-80
2022/06/24 04:50:36;;;;;;;14.63;8.10;;;21.70;99.90;;;;;;5097107;28;20184;-79
2022/06/24 04:53:03;;;;;;;17.63;8.30;;;21.80;99.90;;;;;;5096475;28;20270;-79
2022/06/24 04:55:29;;;;;;;9.63;7.65;;;21.70;99.90;;;;;;5096483;28;20176;-80
2022/06/24 04:57:55;;;;;;;11.82;8.50;;;21.70;99.90;;;;;;5095113;28;20253;-80
2022/06/24 05:00:20;;;;;;;13.70;8.00;;;21.80;99.90;;;;;;5098153;28;20186;-80
2022/06/24 05:02:46;;;;;;;20.50;8.63;;;21.60;99.90;;;;;;5095608;28;20233;-80
2022/06/24 05:05:12;;;;;;;13.77;9.10;;;21.40;99.90;;;;;;5097162;28;20542;-80
2022/06/24 05:07:39;;;;;;;18.73;9.23;;;21.40;99.90;;;;;;5095119;28;20168;-80
2022/06/24 05:10:06;;;;;;;17.50;8.48;;;21.30;99.90;;;;;;5095797;28;20223;-80
2022/06/24 05:12:32;;;;;;;13.23;8.95;;;21.40;99.90;;;;;;5093791;28;20199;-80
2022/06/24 05:14:58;;;;;;;17.85;9.07;;;21.40;99.90;;;;;;5093881;28;20176;-81
2022/06/24 05:17:26;;;;;;;16.05;8.85;;;21.30;99.90;;;;;;5093195;28;20187;-80
2022/06/24 05:19:53;;;;;;;12.02;8.80;;;21.10;99.90;;;;;;5093309;28;20174;-80
2022/06/24 05:22:19;;;;;;;13.02;9.15;;;21.20;99.90;;;;;;5092241;28;20198;-80
2022/06/24 05:24:44;;;;;;;16.75;8.77;;;21.20;99.90;;;;;;5094413;28;20704;-80
2022/06/24 05:27:10;;;;;;;14.48;8.60;;;21.30;99.90;;;;;;5093247;28;20176;-80
2022/06/24 05:29:36;;;;;;;13.48;8.32;;;21.30;99.90;;;;;;5093031;28;20549;-80
2022/06/24 05:32:02;;;;;;;14.10;8.02;;;21.30;99.90;;;;;;5093350;28;20195;-80
2022/06/24 05:34:27;;;;;;;16.02;9.27;;;21.10;99.90;;;;;;5093273;28;20171;-80
2022/06/24 05:36:53;;;;;;;12.45;7.43;;;21.10;99.90;;;;;;5095151;28;20206;-80
2022/06/24 05:39:19;;;;;;;13.00;7.13;;;21.20;99.90;;;;;;5092699;28;20238;-80
2022/06/24 05:41:45;;;;;;;12.93;6.80;;;21.20;99.90;;;;;;5092759;28;20667;-80
2022/06/24 05:44:11;;;;;;;13.70;6.68;;;21.20;99.90;;;;;;5092839;28;20171;-80
2022/06/24 05:46:38;;;;;;;13.55;7.32;;;21.10;99.90;;;;;;5094465;28;20168;-80
2022/06/24 05:49:04;;;;;;;12.68;7.32;;;21.20;99.90;;;;;;5095818;28;20173;-80
2022/06/24 05:51:30;;;;;;;11.85;6.53;;;21.20;99.90;;;;;;5096691;28;20179;-80
2022/06/24 05:56:40;;;;;;;13.00;7.70;;;21.10;99.90;;;;;;5099340;28;20221;-81
2022/06/24 05:59:06;;;;;;;11.48;8.07;;;20.80;99.90;;;;;;5098304;28;20204;-81
2022/06/24 06:01:32;;;;;;;15.40;9.00;;;20.70;99.90;;;;;;5096764;28;20172;-81
2022/06/24 06:03:58;;;;;;;13.20;9.13;;;20.70;99.90;;;;;;5095424;28;20180;-81
2022/06/24 06:06:23;;;;;;;21.88;11.90;;;20.50;99.90;;;;;;5096259;28;20662;-81
2022/06/24 06:08:49;;;;;;;20.85;11.45;;;20.20;99.90;;;;;;5097534;28;20200;-81
2022/06/24 06:11:24;;;;;;;26.90;13.82;;;19.80;99.90;;;;;;5097631;28;20273;-79
2022/06/24 06:13:53;;;;;;;29.92;14.55;;;19.90;99.90;;;;;;5096421;28;20244;-79
2022/06/24 06:16:21;;;;;;;29.42;16.45;;;19.70;99.90;;;;;;5103080;28;20176;-81
2022/06/24 06:18:48;;;;;;;32.00;17.45;;;19.80;99.90;;;;;;5101032;28;20232;-81
2022/06/24 06:21:14;;;;;;;37.27;21.50;;;19.90;99.90;;;;;;5100768;28;20179;-81
2022/06/24 06:23:40;;;;;;;46.33;25.38;;;19.90;99.90;;;;;;5100728;28;20255;-81
2022/06/24 06:26:08;;;;;;;43.53;24.70;;;19.80;99.90;;;;;;5102056;28;20620;-81
2022/06/24 06:28:34;;;;;;;47.57;22.70;;;20.00;99.90;;;;;;5102467;28;20176;-81
2022/06/24 06:31:01;;;;;;;40.40;24.10;;;19.90;99.90;;;;;;5100857;28;20555;-81
2022/06/24 06:33:27;;;;;;;44.77;24.47;;;20.00;99.90;;;;;;5089307;28;20207;-82
2022/06/24 06:36:07;;;;;;;40.10;23.60;;;20.00;99.90;;;;;;5081789;28;20240;-82
2022/06/24 06:38:33;;;;;;;44.28;25.02;;;20.00;99.90;;;;;;5081745;28;20200;-81
2022/06/24 06:40:59;;;;;;;50.40;26.70;;;20.20;99.90;;;;;;5080660;28;20613;-81
2022/06/24 06:43:25;;;;;;;50.27;29.40;;;19.80;99.90;;;;;;5080129;28;20196;-81
2022/06/24 06:45:52;;;;;;;60.43;31.97;;;20.00;99.90;;;;;;5080569;28;20259;-82
2022/06/24 06:48:19;;;;;;;60.43;34.47;;;20.00;99.90;;;;;;5080249;28;20225;-81
2022/06/24 06:50:44;;;;;;;56.33;30.40;;;19.80;99.90;;;;;;5080516;28;20263;-82
2022/06/24 06:53:10;;;;;;;52.90;29.90;;;19.70;99.90;;;;;;5080601;28;20209;-82
2022/06/24 06:55:35;;;;;;;50.57;27.63;;;19.80;99.90;;;;;;5081166;28;20196;-82
2022/06/24 06:58:01;;;;;;;48.73;25.87;;;19.80;99.90;;;;;;5081373;28;20208;-83
2022/06/24 07:00:27;;;;;;;43.97;23.03;;;19.80;99.90;;;;;;5081800;28;20660;-83
2022/06/24 07:02:53;;;;;;;33.30;19.93;;;19.60;99.90;;;;;;5080722;28;20242;-82
2022/06/24 07:05:20;;;;;;;33.13;18.70;;;19.40;99.90;;;;;;5082361;28;20644;-82
2022/06/24 07:07:46;;;;;;;31.80;19.40;;;19.40;99.90;;;;;;5081298;28;20173;-83
2022/06/24 07:10:11;;;;;;;27.63;17.63;;;19.60;99.90;;;;;;5081036;28;20169;-81
2022/06/24 07:12:37;;;;;;;29.63;16.57;;;19.40;99.90;;;;;;5077991;28;20653;-79
2022/06/24 07:15:03;;;;;;;23.07;15.73;;;19.60;99.90;;;;;;5074945;28;20168;-78
2022/06/24 07:17:28;;;;;;;24.70;16.63;;;19.50;99.90;;;;;;5077436;28;20606;-80
2022/06/24 07:19:54;;;;;;;28.93;16.23;;;19.50;99.90;;;;;;5076673;28;20175;-80
2022/06/24 07:22:20;;;;;;;23.87;15.50;;;19.50;99.90;;;;;;5076904;28;20188;-79
2022/06/24 07:24:45;;;;;;;25.70;14.50;;;19.50;99.90;;;;;;5075130;28;20165;-79
2022/06/24 07:27:11;;;;;;;19.63;13.10;;;19.50;99.90;;;;;;5071034;28;20308;-78
2022/06/24 07:29:37;;;;;;;21.10;12.53;;;19.50;99.90;;;;;;5072258;28;20712;-79
2022/06/24 07:32:07;;;;;;;20.07;12.00;;;19.40;99.90;;;;;;5073867;28;20216;-78
2022/06/24 07:34:35;;;;;;;20.57;10.90;;;19.30;99.90;;;;;;5074210;28;20662;-79
2022/06/24 07:37:02;;;;;;;15.80;10.30;;;19.40;99.90;;;;;;5075562;28;20253;-79
2022/06/24 07:39:28;;;;;;;20.90;10.83;;;19.40;99.90;;;;;;5082749;28;20193;-78
2022/06/24 07:41:55;;;;;;;14.10;8.67;;;19.50;99.90;;;;;;5083093;28;20181;-79
2022/06/24 07:44:21;;;;;;;14.70;8.83;;;19.50;99.90;;;;;;5081323;28;20539;-79
2022/06/24 07:46:47;;;;;;;15.23;7.87;;;19.70;99.90;;;;;;5085702;28;20291;-79
2022/06/24 07:49:13;;;;;;;12.97;6.87;;;19.70;99.90;;;;;;5085795;28;20168;-79
2022/06/24 07:51:38;;;;;;;14.57;7.10;;;19.70;99.90;;;;;;5079884;28;20172;-80
2022/06/24 07:54:07;;;;;;;12.43;7.53;;;19.90;99.90;;;;;;5079728;28;20264;-78
2022/06/24 07:59:18;;;;;;;8.83;5.43;;;20.00;99.90;;;;;;5082954;28;20192;-78
2022/06/24 08:01:45;;;;;;;9.10;5.47;;;19.90;99.90;;;;;;5077547;28;20164;-78
2022/06/24 08:04:11;;;;;;;7.57;4.47;;;19.70;99.90;;;;;;5078030;28;20165;-78
2022/06/24 08:06:42;;;;;;;11.67;5.00;;;19.90;99.90;;;;;;5080943;28;20160;-79
2022/06/24 08:09:08;;;;;;;9.47;4.60;;;19.80;99.90;;;;;;5072861;28;20177;-79
2022/06/24 08:11:36;;;;;;;7.57;4.00;;;20.10;99.90;;;;;;5072875;28;20176;-78
2022/06/24 08:14:01;;;;;;;9.00;4.13;;;19.90;99.90;;;;;;5072491;28;20179;-79
2022/06/24 08:16:27;;;;;;;7.23;3.73;;;19.60;99.90;;;;;;5090697;28;20168;-79
2022/06/24 08:18:53;;;;;;;5.53;3.17;;;19.70;99.90;;;;;;5086231;28;20626;-77
2022/06/24 08:21:19;;;;;;;7.20;3.60;;;19.70;99.90;;;;;;5080198;28;20700;-77
2022/06/24 08:23:45;;;;;;;5.77;3.77;;;19.90;99.90;;;;;;5079847;28;20531;-77
2022/06/24 08:26:10;;;;;;;4.70;3.53;;;20.00;99.90;;;;;;5081817;28;20172;-77
2022/06/24 08:28:36;;;;;;;6.47;3.80;;;20.00;99.90;;;;;;5080384;28;20591;-77
2022/06/24 08:31:02;;;;;;;4.60;3.33;;;20.10;99.90;;;;;;5080377;28;20193;-77
2022/06/24 08:33:28;;;;;;;8.47;3.90;;;20.10;99.90;;;;;;5083345;28;20196;-77
2022/06/24 08:35:54;;;;;;;9.73;3.83;;;20.10;99.90;;;;;;5081150;28;20202;-78
2022/06/24 08:38:20;;;;;;;7.63;3.73;;;20.30;99.90;;;;;;5076126;28;20269;-77
2022/06/24 08:40:47;;;;;;;9.87;3.70;;;20.50;99.90;;;;;;5078349;28;20176;-76
2022/06/24 08:43:14;;;;;;;8.27;3.80;;;20.60;99.90;;;;;;5078519;28;20184;-77
2022/06/24 08:45:40;;;;;;;9.00;3.40;;;21.00;99.90;;;;;;5078655;28;20244;-77
2022/06/24 08:48:10;;;;;;;6.88;3.25;;;20.60;99.90;;;;;;5081271;28;20736;-77
2022/06/24 08:50:36;;;;;;;5.80;3.42;;;20.70;99.90;;;;;;5079903;28;20180;-77
2022/06/24 08:53:08;;;;;;;5.30;3.50;;;20.70;99.90;;;;;;5077496;28;20192;-77
2022/06/24 08:55:39;;;;;;;7.53;3.03;;;20.80;99.90;;;;;;5076161;28;20168;-77
2022/06/24 08:58:10;;;;;;;7.82;3.58;;;20.80;99.90;;;;;;5077926;28;20276;-77
2022/06/24 09:00:36;;;;;;;11.40;3.20;;;20.60;99.90;;;;;;5076659;28;20204;-77
2022/06/24 09:03:03;;;;;;;7.05;3.33;;;20.70;99.90;;;;;;5079282;28;20194;-78
2022/06/24 09:05:29;;;;;;;4.40;3.25;;;20.60;99.90;;;;;;5081307;28;20211;-77
2022/06/24 09:08:15;;;;;;;6.88;3.50;;;20.70;99.90;;;;;;5078837;28;20175;-77
2022/06/24 09:10:43;;;;;;;7.13;4.20;;;20.70;99.90;;;;;;5079229;28;20260;-77
2022/06/24 09:13:20;;;;;;;10.43;3.90;;;20.70;99.90;;;;;;5082389;28;20211;-77
2022/06/24 09:15:53;;;;;;;8.23;4.10;;;20.60;99.90;;;;;;5071229;28;20172;-77
2022/06/24 09:18:25;;;;;;;7.93;3.45;;;21.00;99.90;;;;;;5072360;28;20218;-78
2022/06/24 09:20:57;;;;;;;11.27;4.13;;;20.90;99.90;;;;;;5072170;28;20176;-78
2022/06/24 09:23:23;;;;;;;10.18;4.32;;;20.80;99.90;;;;;;5070364;28;20311;-77
2022/06/24 09:26:03;;;;;;;6.25;3.58;;;20.90;99.90;;;;;;5071648;28;20165;-78
2022/06/24 09:28:31;;;;;;;6.40;3.83;;;21.10;99.90;;;;;;5072598;28;20630;-78
2022/06/24 09:31:04;;;;;;;7.93;3.92;;;21.10;99.90;;;;;;5071257;28;20185;-78
2022/06/24 09:33:44;;;;;;;6.18;3.90;;;20.90;99.90;;;;;;5071934;28;20214;-78
2022/06/24 09:36:11;;;;;;;8.35;4.22;;;20.90;99.90;;;;;;5080225;28;20237;-77
2022/06/24 09:38:56;;;;;;;10.63;4.70;;;20.90;99.90;;;;;;5089608;28;20195;-77
2022/06/24 09:41:23;;;;;;;12.60;4.82;;;21.00;99.90;;;;;;5091017;28;20168;-78
2022/06/24 09:43:51;;;;;;;11.20;3.92;;;21.20;99.90;;;;;;5091103;28;20237;-77
2022/06/24 09:46:21;;;;;;;6.50;4.32;;;21.60;99.90;;;;;;5091492;28;20167;-78
2022/06/24 09:48:47;;;;;;;7.90;4.38;;;21.80;99.90;;;;;;5091754;28;20644;-77
2022/06/24 09:51:15;;;;;;;7.55;4.57;;;22.30;99.90;;;;;;5090210;28;20177;-78
2022/06/24 09:53:41;;;;;;;17.30;4.07;;;21.90;99.90;;;;;;5092350;28;20274;-77
2022/06/24 09:56:09;;;;;;;13.52;5.38;;;22.00;99.90;;;;;;5095853;28;20229;-77
2022/06/24 09:58:39;;;;;;;8.40;4.00;;;22.20;99.90;;;;;;5095897;28;20188;-79
2022/06/24 10:01:06;;;;;;;6.53;4.75;;;22.50;99.90;;;;;;5096435;28;20178;-78
2022/06/24 10:03:34;;;;;;;9.02;4.60;;;22.50;99.90;;;;;;5097591;28;20192;-78
2022/06/24 10:06:03;;;;;;;8.63;4.53;;;22.20;99.90;;;;;;5095552;28;20171;-80
2022/06/24 10:08:37;;;;;;;7.70;4.53;;;22.20;99.90;;;;;;5096433;28;20652;-78
2022/06/24 10:11:08;;;;;;;6.22;4.80;;;22.20;99.90;;;;;;5096201;28;20693;-79
2022/06/24 10:13:35;;;;;;;10.98;5.30;;;22.10;99.90;;;;;;5097549;28;20679;-80
2022/06/24 10:16:03;;;;;;;10.25;6.80;;;22.30;99.90;;;;;;5098886;28;20172;-80
2022/06/24 10:18:36;;;;;;;14.20;8.00;;;22.40;99.90;;;;;;5098612;28;20192;-79
2022/06/24 10:21:05;;;;;;;12.52;8.68;;;22.50;99.90;;;;;;5096411;28;20175;-80
2022/06/24 10:23:38;;;;;;;13.00;9.70;;;22.70;99.90;;;;;;5096526;28;20215;-80
2022/06/24 10:26:17;;;;;;;12.10;9.73;;;22.60;99.90;;;;;;5097339;28;20221;-79
2022/06/24 10:29:03;;;;;;;15.45;9.63;;;22.60;99.90;;;;;;5096822;28;20180;-79
2022/06/24 10:31:54;;;;;;;16.17;10.95;;;22.60;99.90;;;;;;5096758;28;20535;-79
2022/06/24 10:34:27;;;;;;;12.23;10.23;;;22.70;99.90;;;;;;5097042;28;20179;-80
2022/06/24 10:36:57;;;;;;;11.65;9.43;;;22.60;99.90;;;;;;5097770;28;20191;-80
2022/06/24 10:39:25;;;;;;;11.88;9.00;;;22.90;99.90;;;;;;5098141;28;20196;-80
2022/06/24 10:42:07;;;;;;;11.52;9.82;;;23.30;99.90;;;;;;5097424;28;20251;-79
2022/06/24 10:44:37;;;;;;;10.07;8.93;;;23.40;99.90;;;;;;5096225;28;20650;-79
2022/06/24 10:47:12;;;;;;;11.95;9.10;;;23.40;99.90;;;;;;5097691;28;20164;-78
2022/06/24 10:49:55;;;;;;;12.95;8.23;;;23.10;99.90;;;;;;5098847;28;20178;-80
2022/06/24 10:52:51;;;;;;;7.65;6.70;;;23.20;99.90;;;;;;5099010;28;20586;-79
2022/06/24 10:55:16;;;;;;;6.63;5.97;;;23.50;99.90;;;;;;5097563;28;20171;-79
2022/06/24 10:57:49;;;;;;;6.38;5.65;;;23.80;99.90;;;;;;5098810;28;20168;-81
2022/06/24 11:00:19;;;;;;;9.40;5.95;;;23.60;99.90;;;;;;5100042;28;20168;-80
2022/06/24 11:02:47;;;;;;;7.55;5.70;;;23.50;99.90;;;;;;5100968;28;20223;-80
2022/06/24 11:05:23;;;;;;;7.03;5.57;;;23.10;99.90;;;;;;5087605;28;20175;-80
2022/06/24 11:07:50;;;;;;;5.18;4.68;;;23.00;99.90;;;;;;5078645;28;20178;-79
2022/06/24 11:10:22;;;;;;;4.47;3.40;;;22.90;99.90;;;;;;5078399;28;20175;-82
2022/06/24 11:12:50;;;;;;;2.63;2.45;;;23.00;99.90;;;;;;5087815;28;20223;-84
2022/06/24 11:15:15;;;;;;;3.85;2.63;;;22.60;99.90;;;;;;5094980;28;20177;-83
2022/06/24 11:17:42;;;;;;;2.10;2.00;;;22.50;99.90;;;;;;5092559;28;20198;-84
2022/06/24 11:20:11;;;;;;;2.60;2.40;;;22.50;99.90;;;;;;5091583;28;20228;-83
2022/06/24 11:22:44;;;;;;;2.65;2.20;;;22.50;99.90;;;;;;5097608;28;20191;-83
2022/06/24 11:25:14;;;;;;;2.78;2.30;;;22.60;99.90;;;;;;5088873;28;20172;-84
2022/06/24 11:27:41;;;;;;;2.20;2.00;;;22.50;99.90;;;;;;5086813;28;20190;-84
2022/06/24 11:30:09;;;;;;;1.50;1.50;;;22.40;99.90;;;;;;5096468;28;20218;-84
2022/06/24 11:32:56;;;;;;;2.03;1.80;;;22.40;99.90;;;;;;5095926;28;20230;-83
2022/06/24 11:35:23;;;;;;;1.70;1.60;;;22.40;99.90;;;;;;5089303;28;20160;-82
2022/06/24 11:37:49;;;;;;;2.70;1.70;;;22.40;99.90;;;;;;5088372;28;20192;-82
2022/06/24 11:40:27;;;;;;;1.80;1.70;;;22.40;99.90;;;;;;5085980;28;20180;-84
2022/06/24 11:42:54;;;;;;;1.60;1.50;;;22.30;99.90;;;;;;5061195;28;20189;-84
2022/06/24 11:45:40;;;;;;;1.63;1.52;;;22.30;99.90;;;;;;5076060;28;20177;-83
2022/06/24 11:48:09;;;;;;;1.67;1.42;;;22.70;99.90;;;;;;5083317;28;20540;-82
2022/06/24 11:50:35;;;;;;;1.67;1.58;;;23.00;99.90;;;;;;5095279;28;20173;-83
2022/06/24 11:53:03;;;;;;;1.70;1.60;;;23.30;99.90;;;;;;5096338;28;20241;-83
2022/06/24 11:55:30;;;;;;;1.60;1.60;;;23.40;99.90;;;;;;5086945;28;20171;-83
2022/06/24 11:57:57;;;;;;;3.47;1.50;;;23.40;99.90;;;;;;5089796;28;20629;-84
2022/06/24 12:00:25;;;;;;;2.97;1.83;;;23.10;99.90;;;;;;5088581;28;20571;-84
2022/06/24 12:02:53;;;;;;;2.03;1.90;;;22.80;99.90;;;;;;5086137;28;20688;-82
2022/06/24 12:05:21;;;;;;;3.63;2.30;;;22.70;99.90;;;;;;5078078;28;20172;-83
2022/06/24 12:07:48;;;;;;;4.05;2.20;;;22.70;99.90;;;;;;5079775;28;20690;-83
2022/06/24 12:10:13;;;;;;;3.50;3.28;;;22.70;99.90;;;;;;5085676;28;20160;-83
2022/06/24 12:13:06;;;;;;;5.60;3.47;;;22.60;99.90;;;;;;5086087;28;20621;-83
2022/06/24 12:15:31;;;;;;;5.30;3.50;;;22.60;99.90;;;;;;5085337;28;20180;-83
2022/06/24 12:17:57;;;;;;;5.28;2.90;;;22.70;99.90;;;;;;5084701;28;20164;-83
2022/06/24 12:20:28;;;;;;;3.97;3.58;;;22.90;99.90;;;;;;5082401;28;20176;-84
2022/06/24 12:23:12;;;;;;;5.20;3.50;;;23.10;99.90;;;;;;5085979;28;20180;-83
2022/06/24 12:25:47;;;;;;;4.60;3.53;;;23.30;99.90;;;;;;5094838;28;20171;-83
2022/06/24 12:28:19;;;;;;;4.40;3.55;;;23.50;99.90;;;;;;5088227;28;20195;-85
2022/06/24 12:31:14;;;;;;;4.60;3.90;;;23.50;99.90;;;;;;5096248;28;20176;-84
2022/06/24 12:33:52;;;;;;;3.83;3.53;;;23.60;99.90;;;;;;5069484;28;20264;-84
2022/06/24 12:36:23;;;;;;;4.90;3.80;;;23.60;99.90;;;;;;5091091;28;20547;-84
2022/06/24 12:39:00;;;;;;;4.88;3.60;;;23.40;99.90;;;;;;5100131;28;20191;-84
2022/06/24 12:41:26;;;;;;;3.28;2.97;;;23.50;99.90;;;;;;5096468;28;20668;-84
2022/06/24 12:44:01;;;;;;;4.93;3.50;;;23.30;99.90;;;;;;5092627;28;20231;-84
2022/06/24 12:46:36;;;;;;;3.65;3.03;;;23.60;99.90;;;;;;5083560;28;20167;-83
2022/06/24 12:51:56;;;;;;;4.10;2.72;;;23.60;99.90;;;;;;5077980;28;20281;-85
2022/06/24 12:54:22;;;;;;;5.43;2.95;;;23.60;99.90;;;;;;5082007;28;20169;-82
2022/06/24 12:56:48;;;;;;;3.17;2.80;;;23.70;99.90;;;;;;5067187;28;20172;-83
2022/06/24 12:59:13;;;;;;;4.20;2.05;;;23.80;99.90;;;;;;5079563;28;20660;-82